Time;durP1;ratioP1;P1;durP2;ratioP2;P2;SDS_P1;SDS_P2;PMS_P1;PMS_P2;Temp;Humidity;BMP_temperature;BMP_pressure;BME280_temperature;BME280_humidity;BME280_pressure;Samples;Min_cycle;Max_cycle;Signal;HPM_P1;HPM_P2
2022/06/22 00:01:15;;;;;;;0.10;0.10;;;;;;;22.08;47.71;100904.31;5130438;28;20098;-40
2022/06/22 00:03:41;;;;;;;0.10;0.10;;;;;;;22.07;47.73;100899.91;5129043;28;20530;-40
2022/06/22 00:06:21;;;;;;;0.10;0.10;;;;;;;22.06;47.68;100882.41;5111945;28;20039;-40
2022/06/22 00:08:51;;;;;;;0.10;0.10;;;;;;;22.08;47.80;100877.41;5130606;28;20123;-40
2022/06/22 00:11:17;;;;;;;0.10;0.10;;;;;;;22.07;47.71;100873.00;5111222;28;20191;-41
2022/06/22 00:13:49;;;;;;;0.10;0.10;;;;;;;22.07;47.57;100874.94;5131039;28;20142;-40
2022/06/22 00:16:17;;;;;;;0.10;0.10;;;;;;;22.07;47.74;100869.41;5111914;28;20134;-38
2022/06/22 00:18:45;;;;;;;0.20;0.20;;;;;;;22.07;47.66;100884.09;5110314;28;20438;-41
2022/06/22 00:21:32;;;;;;;0.10;0.10;;;;;;;22.07;47.67;100874.94;5109597;28;20082;-40
2022/06/22 00:24:01;;;;;;;0.10;0.10;;;;;;;22.07;47.68;100884.09;5096951;28;20481;-40
2022/06/22 00:26:32;;;;;;;0.10;0.10;;;;;;;22.06;47.76;100893.50;5112604;28;20070;-41
2022/06/22 00:29:17;;;;;;;0.10;0.10;;;;;;;22.08;47.63;100890.47;5110642;28;20074;-40
2022/06/22 00:34:33;;;;;;;0.10;0.10;;;;;;;22.06;47.89;100874.09;5173427;27;20116;-40
2022/06/22 00:37:04;;;;;;;0.10;0.10;;;;;;;22.05;47.84;100875.22;5130449;27;20105;-40
2022/06/22 00:39:35;;;;;;;0.10;0.10;;;;;;;22.05;47.69;100873.28;5127703;27;20201;-40
2022/06/22 00:42:14;;;;;;;0.10;0.10;;;;;;;22.05;47.86;100873.28;5134959;27;20082;-39
2022/06/22 00:45:01;;;;;;;0.10;0.10;;;;;;;22.05;47.81;100884.38;5147497;27;20079;-38
2022/06/22 00:47:54;;;;;;;0.10;0.10;;;;;;;22.03;47.81;100886.63;5127844;27;20477;-40
2022/06/22 00:50:24;;;;;;;0.10;0.10;;;;;;;22.05;47.79;100889.09;5129185;27;20074;-37
2022/06/22 00:52:53;;;;;;;0.10;0.10;;;;;;;22.05;47.73;100878.81;5149880;27;20034;-38
2022/06/22 00:55:40;;;;;;;0.10;0.10;;;;;;;22.05;47.61;100876.06;5130407;27;20143;-37
2022/06/22 00:58:31;;;;;;;0.10;0.10;;;;;;;22.05;47.82;100878.00;5134750;27;20121;-40
2022/06/22 01:01:05;;;;;;;0.10;0.10;;;;;;;22.05;47.86;100873.28;5114423;27;20091;-41
2022/06/22 01:03:38;;;;;;;0.10;0.10;;;;;;;22.04;47.70;100871.63;5130102;27;20085;-38
2022/06/22 01:06:27;;;;;;;0.10;0.10;;;;;;;22.04;47.78;100868.88;5130474;27;20050;-41
2022/06/22 01:09:03;;;;;;;0.10;0.10;;;;;;;22.04;47.69;100857.78;5129185;27;20075;-40
2022/06/22 01:14:41;;;;;;;0.10;0.10;;;;;;;22.05;47.82;100847.50;5115100;27;20494;-40
2022/06/22 01:17:13;;;;;;;0.10;0.10;;;;;;;22.04;47.78;100838.38;5144114;27;20078;-39
2022/06/22 01:19:52;;;;;;;0.10;0.10;;;;;;;22.06;47.80;100843.59;5152509;27;20483;-40
2022/06/22 01:22:58;;;;;;;0.10;0.10;;;;;;;22.04;47.82;100843.91;5112633;27;20070;-36
2022/06/22 01:25:53;;;;;;;0.10;0.10;;;;;;;22.03;47.75;100845.03;5117041;27;20537;-36
2022/06/22 01:28:19;;;;;;;0.10;0.10;;;;;;;22.03;47.84;100839.50;5117569;27;20082;-39
2022/06/22 01:30:49;;;;;;;0.10;0.10;;;;;;;22.04;47.92;100843.09;5129900;27;20046;-40
2022/06/22 01:33:24;;;;;;;0.10;0.10;;;;;;;22.04;47.88;100851.41;5129892;27;20468;-39
2022/06/22 01:35:52;;;;;;;0.10;0.10;;;;;;;22.04;47.79;100845.88;5115816;27;20087;-37
2022/06/22 01:38:22;;;;;;;;;;;;;;;22.04;47.88;100843.09;5128363;27;20078;-39
2022/06/22 01:41:12;;;;;;;0.10;0.10;;;;;;;22.03;47.77;100842.28;5133561;27;19962;-39
2022/06/22 01:43:42;;;;;;;0.10;0.10;;;;;;;22.03;47.92;100836.72;5114986;27;20139;-38
2022/06/22 01:46:16;;;;;;;0.10;0.10;;;;;;;22.04;47.90;100841.13;5082941;28;20040;-39
2022/06/22 01:48:48;;;;;;;0.10;0.10;;;;;;;22.03;47.79;100833.94;5099422;28;20129;-39
2022/06/22 01:51:20;;;;;;;0.10;0.10;;;;;;;22.04;47.83;100838.38;5106086;28;20529;-40
2022/06/22 01:53:50;;;;;;;0.10;0.10;;;;;;;22.03;47.91;100833.94;5122481;28;20067;-41
2022/06/22 01:56:43;;;;;;;0.10;0.10;;;;;;;22.05;47.74;100833.63;5104437;28;20130;-41
2022/06/22 01:59:19;;;;;;;0.10;0.10;;;;;;;22.03;47.81;100828.41;5104714;28;20127;-41
2022/06/22 02:01:52;;;;;;;0.10;0.10;;;;;;;22.03;47.90;100822.84;5102873;28;20082;-41
2022/06/22 02:04:45;;;;;;;0.10;0.10;;;;;;;22.02;47.97;100823.13;5099618;28;20494;-41
2022/06/22 02:07:56;;;;;;;0.10;0.10;;;;;;;22.03;47.93;100822.84;5102626;28;20127;-37
2022/06/22 02:13:28;;;;;;;0.10;0.10;;;;;;;22.02;47.80;100835.09;5158641;27;20158;-42
2022/06/22 02:16:08;;;;;;;0.10;0.10;;;;;;;22.03;47.92;100844.22;5141398;27;20166;-40
2022/06/22 02:18:43;;;;;;;0.10;0.10;;;;;;;22.04;47.81;100837.53;5156778;27;20297;-41
2022/06/22 02:21:19;;;;;;;0.10;0.10;;;;;;;22.04;47.96;100845.88;5160402;27;20078;-40
2022/06/22 02:23:51;;;;;;;0.10;0.10;;;;;;;22.02;47.95;100846.19;5138062;27;20075;-40
2022/06/22 02:26:24;;;;;;;0.10;0.10;;;;;;;22.04;47.90;100845.88;5157454;27;20468;-40
2022/06/22 02:28:50;;;;;;;0.10;0.10;;;;;;;22.03;47.93;100845.03;5158275;27;20081;-39
2022/06/22 02:31:18;;;;;;;0.10;0.10;;;;;;;22.03;47.85;100838.69;5160410;27;20039;-38
2022/06/22 02:33:46;;;;;;;0.10;0.10;;;;;;;22.02;47.92;100835.09;5158240;27;20096;-37
2022/06/22 02:36:12;;;;;;;;;;;;;;;22.03;47.88;100830.34;5125550;27;20070;-39
2022/06/22 02:38:38;;;;;;;0.10;0.10;;;;;;;22.02;47.93;100826.75;5156831;27;19942;-39
2022/06/22 02:46:38;;;;;;;0.10;0.10;;;;;;;22.02;47.94;100829.53;5142072;27;20549;-40
2022/06/22 02:49:13;;;;;;;0.10;0.10;;;;;;;22.01;47.97;100829.81;5157043;27;20069;-40
2022/06/22 02:51:43;;;;;;;0.10;0.10;;;;;;;22.02;47.97;100829.53;5160097;27;20077;-36
2022/06/22 02:54:23;;;;;;;0.10;0.10;;;;;;;22.01;47.80;100833.41;5121012;27;20077;-41
2022/06/22 02:56:57;;;;;;;0.13;0.13;;;;;;;22.02;47.98;100845.31;5142805;27;20101;-37
2022/06/22 02:59:22;;;;;;;0.10;0.10;;;;;;;22.02;47.94;100853.66;5141722;27;20078;-40
2022/06/22 03:01:48;;;;;;;0.10;0.10;;;;;;;22.02;48.00;100837.84;5158304;27;20052;-40
2022/06/22 03:04:15;;;;;;;0.10;0.10;;;;;;;22.01;48.02;100829.81;5159778;27;20051;-40
2022/06/22 03:06:46;;;;;;;0.10;0.10;;;;;;;22.02;47.89;100823.13;5140699;27;20043;-40
2022/06/22 03:09:11;;;;;;;0.10;0.10;;;;;;;22.02;47.94;100814.81;5163641;27;20113;-37
2022/06/22 03:11:40;;;;;;;0.10;0.10;;;;;;;22.02;47.96;100815.66;5155665;27;20039;-38
2022/06/22 03:14:28;;;;;;;0.10;0.10;;;;;;;22.01;48.01;100815.94;5158618;27;20074;-38
2022/06/22 03:16:59;;;;;;;0.10;0.10;;;;;;;21.99;47.87;100816.28;5143696;27;20085;-41
2022/06/22 03:19:31;;;;;;;0.10;0.10;;;;;;;22.00;47.95;100800.44;5140010;27;20480;-40
2022/06/22 03:21:56;;;;;;;0.10;0.10;;;;;;;22.02;47.90;100817.59;5122437;27;20083;-38
2022/06/22 03:24:34;;;;;;;0.10;0.10;;;;;;;22.01;47.84;100819.53;5144812;27;20087;-41
2022/06/22 03:27:02;;;;;;;;;;;;;;;22.01;47.95;100805.69;5143450;27;20078;-37
2022/06/22 03:29:31;;;;;;;;;;;;;;;22.01;47.96;100805.69;5145340;27;20410;-40
2022/06/22 03:32:02;;;;;;;0.10;0.10;;;;;;;22.00;47.94;100806.81;5148058;27;20015;-42
2022/06/22 03:34:31;;;;;;;0.10;0.10;;;;;;;22.01;47.90;100802.91;5112177;27;20074;-39
2022/06/22 03:37:00;;;;;;;0.10;0.10;;;;;;;22.01;47.92;100800.13;5106175;27;20058;-39
2022/06/22 03:39:29;;;;;;;0.10;0.10;;;;;;;22.01;48.19;100800.13;5145278;27;20220;-37
2022/06/22 03:42:00;;;;;;;0.10;0.10;;;;;;;22.01;47.98;100793.78;5144431;27;20118;-38
2022/06/22 03:44:31;;;;;;;0.10;0.10;;;;;;;22.01;48.00;100791.81;5133712;27;20081;-39
2022/06/22 03:47:00;;;;;;;0.10;0.10;;;;;;;22.00;47.94;100794.91;5132342;27;20073;-40
2022/06/22 03:49:32;;;;;;;0.10;0.10;;;;;;;22.00;47.95;100795.72;5134296;27;20122;-40
2022/06/22 03:54:49;;;;;;;0.10;0.10;;;;;;;22.00;48.00;100795.72;5178382;27;20517;-39
2022/06/22 03:57:18;;;;;;;0.10;0.10;;;;;;;22.01;47.98;100799.31;5157128;27;20074;-40
2022/06/22 03:59:45;;;;;;;0.10;0.10;;;;;;;22.01;48.09;100794.59;5140175;27;20458;-39
2022/06/22 04:02:11;;;;;;;0.10;0.10;;;;;;;22.00;48.05;100797.69;5159779;27;20070;-38
2022/06/22 04:04:37;;;;;;;0.10;0.10;;;;;;;22.01;47.95;100807.63;5163019;27;20471;-40
2022/06/22 04:07:03;;;;;;;0.10;0.10;;;;;;;22.00;48.01;100815.13;5162676;27;20083;-40
2022/06/22 04:09:30;;;;;;;0.10;0.10;;;;;;;22.01;47.98;100815.94;5143895;27;20105;-41
2022/06/22 04:14:43;;;;;;;0.10;0.10;;;;;;;22.00;47.99;100819.88;5172018;27;20119;-40
2022/06/22 04:17:14;;;;;;;0.10;0.10;;;;;;;22.00;47.96;100829.00;5128961;27;20101;-39
2022/06/22 04:19:43;;;;;;;0.10;0.10;;;;;;;21.99;48.07;100821.81;5152248;27;20046;-39
2022/06/22 04:22:14;;;;;;;0.10;0.10;;;;;;;21.99;48.03;100821.81;5123081;27;20067;-40
2022/06/22 04:24:49;;;;;;;0.10;0.10;;;;;;;22.01;47.88;100829.81;5115081;27;20138;-40
2022/06/22 04:27:20;;;;;;;0.10;0.10;;;;;;;22.01;48.04;100822.31;5129268;27;20070;-40
2022/06/22 04:29:52;;;;;;;0.10;0.10;;;;;;;21.98;48.17;100820.19;5147796;27;20073;-40
2022/06/22 04:32:23;;;;;;;0.10;0.10;;;;;;;21.99;48.14;100838.44;5121492;27;20470;-41
2022/06/22 04:35:13;;;;;;;0.10;0.10;;;;;;;22.00;48.00;100836.50;5109614;27;20045;-41
2022/06/22 04:37:44;;;;;;;0.10;0.10;;;;;;;22.00;47.90;100833.72;5115282;27;20129;-40
2022/06/22 04:40:21;;;;;;;0.10;0.10;;;;;;;21.99;47.95;100832.09;5147135;27;20066;-40
2022/06/22 04:42:46;;;;;;;0.10;0.10;;;;;;;22.00;47.91;100842.03;5143035;27;20081;-41
2022/06/22 04:45:27;;;;;;;0.10;0.10;;;;;;;21.99;47.79;100841.22;5126330;27;20393;-39
2022/06/22 04:47:56;;;;;;;0.10;0.10;;;;;;;21.99;47.99;100844.00;5119245;27;20035;-42
2022/06/22 04:50:21;;;;;;;0.10;0.10;;;;;;;21.99;47.88;100846.78;5145853;27;20504;-39
2022/06/22 04:52:50;;;;;;;0.10;0.10;;;;;;;21.98;48.23;100847.91;5148416;27;20039;-40
2022/06/22 04:55:19;;;;;;;0.10;0.10;;;;;;;21.99;48.08;100845.94;5142974;27;20082;-37
2022/06/22 04:57:48;;;;;;;0.10;0.10;;;;;;;21.99;48.02;100832.09;5130289;27;20082;-40
2022/06/22 05:00:22;;;;;;;0.10;0.10;;;;;;;21.97;48.18;100829.59;5146670;27;20039;-36
2022/06/22 05:02:49;;;;;;;0.10;0.10;;;;;;;21.98;47.61;100833.22;5145993;27;20085;-41
2022/06/22 05:05:21;;;;;;;0.10;0.10;;;;;;;21.97;47.59;100835.13;5139927;27;20252;-39
2022/06/22 05:07:57;;;;;;;0.10;0.10;;;;;;;21.98;47.59;100845.13;5121434;27;20077;-40
2022/06/22 05:10:30;;;;;;;0.10;0.10;;;;;;;21.97;47.84;100849.00;5127874;27;20482;-37
2022/06/22 05:13:02;;;;;;;0.10;0.10;;;;;;;21.97;47.46;100843.47;5142475;27;20078;-40
2022/06/22 05:15:31;;;;;;;0.10;0.10;;;;;;;21.99;47.11;100852.31;5125657;27;20070;-39
2022/06/22 05:17:58;;;;;;;0.10;0.10;;;;;;;21.98;47.20;100863.72;5142145;27;20066;-40
2022/06/22 05:20:31;;;;;;;0.10;0.10;;;;;;;21.99;47.36;100862.59;5141281;27;20075;-39
2022/06/22 05:22:59;;;;;;;0.10;0.10;;;;;;;21.97;47.58;100850.97;5142448;27;20081;-38
2022/06/22 05:25:25;;;;;;;0.10;0.10;;;;;;;21.98;47.45;100853.44;5107442;27;20130;-42
2022/06/22 05:27:58;;;;;;;0.10;0.10;;;;;;;21.97;47.54;100849.00;5132921;27;20049;-40
2022/06/22 05:30:24;;;;;;;0.10;0.10;;;;;;;21.97;47.73;100849.00;5128145;27;20079;-40
2022/06/22 05:32:54;;;;;;;0.10;0.10;;;;;;;21.98;47.68;100847.09;5111614;27;20049;-39
2022/06/22 05:35:24;;;;;;;0.10;0.10;;;;;;;21.95;47.48;100853.22;5113668;28;20092;-40
2022/06/22 05:37:51;;;;;;;0.10;0.10;;;;;;;21.96;47.42;100855.69;5131087;27;20070;-40
2022/06/22 05:40:19;;;;;;;0.10;0.10;;;;;;;21.96;47.99;100860.41;5125134;27;20467;-40
2022/06/22 05:42:45;;;;;;;0.10;0.10;;;;;;;21.97;47.38;100856.50;5129288;27;20165;-38
2022/06/22 05:45:21;;;;;;;0.10;0.10;;;;;;;21.97;47.70;100862.06;5127120;27;20058;-41
2022/06/22 05:47:47;;;;;;;0.10;0.10;;;;;;;21.96;47.89;100857.63;5130310;27;20204;-40
2022/06/22 05:50:49;;;;;;;0.10;0.10;;;;;;;21.97;47.91;100856.50;5131712;27;20368;-41
2022/06/22 05:53:35;;;;;;;0.10;0.10;;;;;;;21.97;48.17;100859.28;5117188;27;20047;-37
2022/06/22 05:56:15;;;;;;;0.10;0.10;;;;;;;21.98;47.99;100860.94;5113509;27;20078;-39
2022/06/22 05:59:08;;;;;;;0.10;0.10;;;;;;;21.98;47.93;100860.94;5123816;27;20621;-39
2022/06/22 06:01:58;;;;;;;0.10;0.10;;;;;;;21.97;48.01;100865.66;5125027;27;20070;-41
2022/06/22 06:04:30;;;;;;;0.10;0.10;;;;;;;21.99;47.94;100871.72;5106186;27;20475;-40
2022/06/22 06:07:00;;;;;;;0.10;0.10;;;;;;;21.95;47.86;100878.19;5125772;27;20043;-41
2022/06/22 06:09:27;;;;;;;0.10;0.10;;;;;;;21.95;48.06;100879.00;5114191;27;20138;-40
2022/06/22 06:12:01;;;;;;;0.10;0.10;;;;;;;21.97;47.43;100881.47;5124114;27;20146;-39
2022/06/22 06:14:32;;;;;;;0.10;0.10;;;;;;;21.95;47.84;100883.72;5106966;27;20172;-39
2022/06/22 06:17:03;;;;;;;0.10;0.10;;;;;;;21.89;47.24;100874.66;5123565;27;20570;-39
2022/06/22 06:19:33;;;;;;;0.10;0.10;;;;;;;21.93;47.44;100875.69;5112878;27;20447;-38
2022/06/22 06:22:01;;;;;;;0.10;0.10;;;;;;;21.94;47.46;100882.91;5123228;27;20094;-39
2022/06/22 06:27:35;;;;;;;0.10;0.10;;;;;;;21.96;47.56;100882.59;5106865;27;20065;-41
2022/06/22 06:30:30;;;;;;;0.10;0.10;;;;;;;21.96;47.54;100877.88;5124483;27;20047;-36
2022/06/22 06:33:01;;;;;;;0.10;0.10;;;;;;;21.96;47.49;100863.19;5105957;27;20083;-42
2022/06/22 06:35:35;;;;;;;0.10;0.10;;;;;;;21.97;47.14;100854.56;5107166;27;20123;-41
2022/06/22 06:38:23;;;;;;;0.10;0.10;;;;;;;21.98;47.45;100850.69;5101524;27;20439;-41
2022/06/22 06:41:02;;;;;;;0.10;0.10;;;;;;;21.97;47.60;100860.09;5127679;27;20179;-41
2022/06/22 06:43:39;;;;;;;0.10;0.10;;;;;;;21.98;47.73;100866.50;5126655;27;20135;-41
2022/06/22 06:46:24;;;;;;;0.10;0.10;;;;;;;21.98;47.98;100861.78;5122385;27;20074;-39
2022/06/22 06:49:04;;;;;;;0.10;0.10;;;;;;;22.00;47.57;100858.69;5117376;27;20043;-40
2022/06/22 06:51:30;;;;;;;0.10;0.10;;;;;;;21.99;47.67;100845.94;5117149;27;20104;-40
2022/06/22 06:54:02;;;;;;;0.10;0.10;;;;;;;22.01;47.54;100852.81;5090723;27;20051;-37
2022/06/22 06:56:33;;;;;;;0.10;0.10;;;;;;;22.01;47.73;100850.06;5099060;27;20043;-40
2022/06/22 06:59:03;;;;;;;0.10;0.10;;;;;;;22.00;47.60;100844.81;5114454;27;20146;-41
2022/06/22 07:01:33;;;;;;;0.10;0.10;;;;;;;22.00;47.79;100850.38;5097531;27;20122;-38
2022/06/22 07:04:07;;;;;;;0.10;0.10;;;;;;;22.02;47.78;100854.50;5095053;27;20031;-41
2022/06/22 07:06:33;;;;;;;0.10;0.10;;;;;;;22.03;47.69;100847.00;5114937;27;20039;-42
2022/06/22 07:09:02;;;;;;;0.10;0.10;;;;;;;22.05;47.81;100850.28;5085637;27;20075;-42
2022/06/22 07:11:34;;;;;;;0.10;0.10;;;;;;;22.02;47.93;100853.66;5117915;27;20557;-43
2022/06/22 07:14:23;;;;;;;0.10;0.10;;;;;;;22.01;47.77;100850.06;5116376;27;20150;-39
2022/06/22 07:16:52;;;;;;;0.10;0.10;;;;;;;22.03;47.59;100847.00;5093906;27;20085;-43
2022/06/22 07:19:22;;;;;;;0.10;0.10;;;;;;;22.03;47.65;100847.00;5095171;27;20137;-43
2022/06/22 07:21:53;;;;;;;0.10;0.10;;;;;;;22.02;47.69;100843.41;5099800;27;20158;-45
2022/06/22 07:24:26;;;;;;;0.10;0.10;;;;;;;22.03;47.77;100847.00;5118526;27;20133;-44
2022/06/22 07:27:33;;;;;;;0.10;0.10;;;;;;;22.02;47.87;100839.78;5119584;27;20113;-43
2022/06/22 07:30:07;;;;;;;0.10;0.10;;;;;;;22.02;47.75;100839.78;5106507;27;20043;-43
2022/06/22 07:32:41;;;;;;;0.10;0.10;;;;;;;22.03;47.79;100833.94;5123170;27;20092;-44
2022/06/22 07:35:16;;;;;;;0.10;0.10;;;;;;;22.03;48.13;100833.13;5116041;27;20616;-42
2022/06/22 07:37:53;;;;;;;0.10;0.10;;;;;;;22.02;48.08;100829.53;5101000;27;20963;-40
2022/06/22 07:40:23;;;;;;;0.10;0.10;;;;;;;22.03;47.87;100835.91;5099076;28;20074;-41
2022/06/22 07:42:50;;;;;;;0.10;0.10;;;;;;;22.04;47.70;100832.00;5102694;27;20054;-42
2022/06/22 07:45:19;;;;;;;0.10;0.10;;;;;;;22.04;47.92;100832.00;5114637;27;20133;-40
2022/06/22 07:47:59;;;;;;;0.10;0.10;;;;;;;22.05;47.72;100831.69;5099962;27;20512;-43
2022/06/22 07:50:33;;;;;;;0.10;0.10;;;;;;;22.04;47.74;100843.09;5121844;27;20134;-45
2022/06/22 07:53:06;;;;;;;0.10;0.10;;;;;;;22.05;47.75;100842.78;5096700;27;20047;-43
2022/06/22 07:55:52;;;;;;;0.10;0.10;;;;;;;22.03;47.92;100850.59;5126637;27;20099;-44
2022/06/22 07:58:27;;;;;;;0.10;0.10;;;;;;;22.04;47.95;100846.69;5099924;27;20118;-41
2022/06/22 08:00:56;;;;;;;0.10;0.10;;;;;;;22.05;47.73;100851.09;5098040;28;20446;-40
2022/06/22 08:03:27;;;;;;;0.10;0.10;;;;;;;22.04;47.71;100851.41;5094878;28;20122;-43
2022/06/22 08:05:56;;;;;;;0.10;0.10;;;;;;;22.04;47.45;100857.78;5095857;27;20094;-45
2022/06/22 08:08:26;;;;;;;0.20;0.20;;;;;;;22.05;47.52;100848.31;5079340;27;20134;-43
2022/06/22 08:10:57;;;;;;;0.10;0.10;;;;;;;22.09;47.61;100847.72;5117343;27;20078;-44
2022/06/22 08:13:25;;;;;;;0.10;0.10;;;;;;;22.09;47.80;100844.94;5092212;27;20138;-40
2022/06/22 08:18:28;;;;;;;0.10;0.10;;;;;;;22.09;47.86;100848.53;5149102;27;20120;-39
2022/06/22 08:20:54;;;;;;;0.10;0.10;;;;;;;22.08;47.83;100843.31;5141815;27;20473;-39
2022/06/22 08:23:23;;;;;;;0.10;0.10;;;;;;;22.09;48.12;100845.78;5106288;27;20143;-44
2022/06/22 08:25:58;;;;;;;;;;;;;;;22.10;48.20;100843.81;5110501;27;20081;-42
2022/06/22 08:28:24;;;;;;;0.10;0.10;;;;;;;22.08;48.21;100838.59;5121748;27;19919;-41
2022/06/22 08:30:53;;;;;;;0.10;0.10;;;;;;;22.08;47.96;100843.31;5141566;27;20088;-42
2022/06/22 08:33:25;;;;;;;0.10;0.10;;;;;;;22.09;47.86;100837.44;5136495;27;20561;-39
2022/06/22 08:35:55;;;;;;;0.10;0.10;;;;;;;22.10;47.27;100841.88;5128204;27;20397;-45
2022/06/22 08:38:26;;;;;;;0.10;0.10;;;;;;;22.09;47.31;100834.69;5098559;27;20472;-40
2022/06/22 08:41:18;;;;;;;0.10;0.10;;;;;;;22.11;47.12;100839.94;5135393;27;20100;-40
2022/06/22 08:43:59;;;;;;;0.10;0.10;;;;;;;22.14;45.91;100839.34;5103450;27;20134;-44
2022/06/22 08:46:50;;;;;;;0.10;0.10;;;;;;;22.20;46.26;100843.69;5133666;27;20074;-42
2022/06/22 08:49:35;;;;;;;0.10;0.10;;;;;;;22.17;46.59;100847.06;5116964;27;20039;-42
2022/06/22 08:52:31;;;;;;;0.10;0.10;;;;;;;22.14;46.32;100836.56;5115591;27;20427;-40
2022/06/22 08:55:29;;;;;;;0.10;0.10;;;;;;;22.13;46.65;100843.25;5124010;27;20055;-45
2022/06/22 08:58:41;;;;;;;0.10;0.10;;;;;;;22.13;47.45;100832.16;5137742;27;20038;-42
2022/06/22 09:01:31;;;;;;;0.10;0.10;;;;;;;22.13;47.50;100830.22;5109085;27;20220;-40
2022/06/22 09:04:31;;;;;;;0.10;0.10;;;;;;;22.13;47.09;100837.72;5124368;27;20059;-40
2022/06/22 09:07:09;;;;;;;0.10;0.10;;;;;;;22.13;47.03;100843.25;5120137;27;20046;-40
2022/06/22 09:10:00;;;;;;;0.10;0.10;;;;;;;22.13;46.92;100849.63;5137340;27;20078;-43
2022/06/22 09:13:05;;;;;;;0.10;0.10;;;;;;;22.17;45.04;100842.34;5117312;27;20086;-44
2022/06/22 09:16:11;;;;;;;0.10;0.10;;;;;;;22.25;44.72;100849.97;5099960;27;20146;-43
2022/06/22 09:19:04;;;;;;;0.10;0.10;;;;;;;22.23;45.98;100856.94;5110454;27;20043;-39
2022/06/22 09:21:58;;;;;;;0.10;0.10;;;;;;;22.19;46.60;100851.19;5124188;27;20549;-40
2022/06/22 09:24:47;;;;;;;0.10;0.10;;;;;;;22.18;45.46;100851.47;5118993;27;20154;-43
2022/06/22 09:27:18;;;;;;;0.10;0.10;;;;;;;22.19;44.88;100850.34;5111767;27;20061;-37
2022/06/22 09:30:06;;;;;;;0.10;0.10;;;;;;;22.18;44.97;100855.09;5085156;27;20070;-41
2022/06/22 09:33:00;;;;;;;0.10;0.10;;;;;;;22.19;45.36;100853.97;5109289;27;20071;-44
2022/06/22 09:36:05;;;;;;;0.10;0.10;;;;;;;22.20;45.26;100841.75;5111018;27;20055;-42
2022/06/22 09:38:44;;;;;;;0.10;0.10;;;;;;;22.20;45.68;100840.94;5094323;27;20074;-40
2022/06/22 09:41:26;;;;;;;0.10;0.10;;;;;;;22.19;45.35;100836.47;5128288;27;20146;-40
2022/06/22 09:44:31;;;;;;;0.10;0.10;;;;;;;22.20;45.99;100833.44;5115829;27;20150;-40
2022/06/22 09:52:55;;;;;;;0.10;0.10;;;;;;;22.20;46.05;100827.06;5156335;27;20201;-42
2022/06/22 09:58:54;;;;;;;0.10;0.10;;;;;;;22.21;44.86;100826.75;5111710;27;20153;-40
2022/06/22 10:01:44;;;;;;;0.10;0.10;;;;;;;22.23;45.07;100823.66;5120589;27;20126;-40
2022/06/22 10:04:32;;;;;;;0.10;0.10;;;;;;;22.21;46.22;100829.50;5131759;27;20378;-41
2022/06/22 10:07:29;;;;;;;0.10;0.10;;;;;;;22.24;44.92;100823.38;5114710;27;20373;-39
2022/06/22 10:10:06;;;;;;;0.10;0.10;;;;;;;22.24;44.43;100820.59;5115306;27;20039;-39
2022/06/22 10:13:03;;;;;;;0.10;0.10;;;;;;;22.25;44.51;100818.66;5116893;27;20568;-39
2022/06/22 10:15:46;;;;;;;0.10;0.10;;;;;;;22.24;44.65;100814.22;5123751;27;20107;-40
2022/06/22 10:18:35;;;;;;;0.10;0.10;;;;;;;22.23;44.34;100813.38;5129408;27;20213;-36
2022/06/22 10:21:10;;;;;;;0.10;0.10;;;;;;;22.24;44.34;100811.47;5102670;27;20107;-41
2022/06/22 10:24:23;;;;;;;0.10;0.10;;;;;;;22.26;44.74;100811.97;5115874;27;20050;-41
2022/06/22 10:27:21;;;;;;;0.10;0.10;;;;;;;22.26;44.79;100800.88;5111594;27;20540;-37
2022/06/22 10:30:16;;;;;;;0.10;0.10;;;;;;;22.25;44.51;100788.94;5123854;27;20074;-38
2022/06/22 10:33:07;;;;;;;0.10;0.10;;;;;;;22.29;44.75;100789.16;5117512;27;20185;-38
2022/06/22 10:35:47;;;;;;;0.10;0.10;;;;;;;22.35;42.86;100784.34;5120077;27;20146;-42
2022/06/22 10:38:24;;;;;;;0.10;0.10;;;;;;;22.32;43.30;100785.75;5135690;27;20105;-40
2022/06/22 10:46:52;;;;;;;0.20;0.20;;;;;;;22.35;45.54;100776.00;5108368;27;20134;-38
2022/06/22 10:49:57;;;;;;;0.10;0.10;;;;;;;22.36;43.58;100784.03;5116364;27;20783;-39
2022/06/22 10:52:56;;;;;;;0.10;0.10;;;;;;;22.33;43.67;100789.38;5121261;27;20042;-40
2022/06/22 10:55:53;;;;;;;0.10;0.10;;;;;;;22.33;43.40;100781.88;5142125;27;20118;-42
2022/06/22 10:58:43;;;;;;;0.10;0.10;;;;;;;22.32;44.54;100784.94;5124156;27;20140;-42
2022/06/22 11:01:34;;;;;;;0.10;0.10;;;;;;;22.33;43.18;100781.88;5121600;27;20538;-39
2022/06/22 11:04:34;;;;;;;0.10;0.10;;;;;;;22.33;43.34;100786.59;5106739;27;20047;-37
2022/06/22 11:07:29;;;;;;;0.10;0.10;;;;;;;22.33;43.52;100786.59;5102667;27;20584;-43
2022/06/22 11:10:35;;;;;;;0.10;0.10;;;;;;;22.37;43.19;100795.97;5112617;27;20476;-43
2022/06/22 11:13:40;;;;;;;0.10;0.10;;;;;;;22.37;43.39;100794.00;5110775;27;20537;-43
2022/06/22 11:16:18;;;;;;;0.10;0.10;;;;;;;22.35;43.61;100796.25;5092321;27;20070;-42
2022/06/22 11:19:12;;;;;;;0.10;0.10;;;;;;;22.34;43.70;100791.84;5119009;27;20047;-39
2022/06/22 11:21:55;;;;;;;0.10;0.10;;;;;;;22.33;44.46;100789.38;5087450;27;20142;-40
2022/06/22 11:24:53;;;;;;;0.10;0.10;;;;;;;22.34;45.27;100793.78;5116378;27;20127;-41
2022/06/22 11:30:56;;;;;;;0.10;0.10;;;;;;;22.54;45.16;100797.03;5087306;28;19966;-38
2022/06/22 11:33:53;;;;;;;0.10;0.10;;;;;;;22.59;46.21;100795.28;5111922;27;20553;-43
2022/06/22 11:36:26;;;;;;;0.10;0.10;;;;;;;22.75;46.66;100793.81;5110706;27;20134;-37
2022/06/22 11:39:52;;;;;;;0.10;0.10;;;;;;;22.59;46.09;100804.41;5096824;27;20050;-41
2022/06/22 11:42:23;;;;;;;0.10;0.10;;;;;;;22.54;46.34;100799.78;5096907;27;20104;-43
2022/06/22 11:48:08;;;;;;;0.10;0.10;;;;;;;22.48;46.61;100801.00;5111144;27;20079;-43
2022/06/22 11:53:51;;;;;;;0.10;0.10;;;;;;;22.57;45.57;100794.75;5156291;27;20211;-40
2022/06/22 11:56:32;;;;;;;0.10;0.10;;;;;;;22.53;46.00;100802.84;5131957;27;20142;-37
2022/06/22 11:59:10;;;;;;;0.10;0.10;;;;;;;22.49;46.05;100799.88;5123398;27;20074;-40
2022/06/22 12:02:01;;;;;;;0.10;0.10;;;;;;;22.49;46.17;100807.38;5141635;27;20081;-37
2022/06/22 12:05:06;;;;;;;0.10;0.10;;;;;;;22.48;46.30;100803.78;5112496;27;20060;-38
2022/06/22 12:08:12;;;;;;;0.10;0.10;;;;;;;22.48;46.44;100809.31;5111756;27;20139;-41
2022/06/22 12:11:17;;;;;;;0.10;0.10;;;;;;;22.45;46.00;100807.19;5109749;27;20503;-41
2022/06/22 12:17:23;;;;;;;0.10;0.10;;;;;;;22.58;46.84;100799.97;5108218;27;20145;-38
2022/06/22 12:20:02;;;;;;;0.10;0.10;;;;;;;22.55;46.49;100789.50;5126367;27;20509;-41
2022/06/22 12:23:08;;;;;;;0.10;0.10;;;;;;;22.53;45.38;100788.97;5126330;27;20324;-43
2022/06/22 12:25:50;;;;;;;0.10;0.10;;;;;;;22.52;46.25;100781.78;5118276;27;20080;-40
2022/06/22 12:28:40;;;;;;;0.10;0.10;;;;;;;22.52;45.81;100790.13;5136741;27;20169;-40
2022/06/22 12:31:16;;;;;;;0.10;0.10;;;;;;;22.53;46.26;100780.66;5116909;27;20149;-41
2022/06/22 12:33:50;;;;;;;0.10;0.10;;;;;;;22.53;46.22;100786.19;5115273;27;20042;-40
2022/06/22 12:36:22;;;;;;;0.10;0.10;;;;;;;22.53;45.73;100775.09;5117939;27;20520;-42
2022/06/22 12:38:51;;;;;;;0.10;0.10;;;;;;;22.57;45.42;100780.88;5133745;27;20134;-38
2022/06/22 12:42:15;;;;;;;0.10;0.10;;;;;;;22.57;45.53;100775.31;5114934;27;20814;-40
2022/06/22 12:45:08;;;;;;;0.10;0.10;;;;;;;22.54;46.08;100766.50;5105358;27;20161;-42
2022/06/22 12:48:28;;;;;;;0.10;0.10;;;;;;;22.60;45.40;100760.84;5112094;27;20646;-43
2022/06/22 12:54:02;;;;;;;0.10;0.10;;;;;;;22.54;45.40;100760.94;5158268;27;20202;-37
2022/06/22 12:56:39;;;;;;;0.10;0.10;;;;;;;22.56;45.30;100752.28;5135329;27;20086;-39
2022/06/22 12:59:11;;;;;;;0.10;0.10;;;;;;;22.54;46.24;100758.16;5140683;27;20945;-40
2022/06/22 13:01:37;;;;;;;0.10;0.10;;;;;;;22.54;45.93;100749.03;5143670;27;20073;-40
2022/06/22 13:04:25;;;;;;;0.20;0.20;;;;;;;22.53;45.72;100750.13;5142945;27;20549;-43
2022/06/22 13:06:58;;;;;;;0.10;0.10;;;;;;;;;;5128571;27;20481;-43
2022/06/22 13:09:24;;;;;;;0.10;0.10;;;;;;;22.54;46.08;100744.28;5143836;27;20126;-42
2022/06/22 13:11:50;;;;;;;0.10;0.10;;;;;;;22.61;43.57;100723.63;5143866;27;20536;-37
2022/06/22 13:14:39;;;;;;;0.10;0.10;;;;;;;22.60;45.39;100728.34;5105910;27;20134;-42